Quetta Weather



Quetta's Current Weather

Temprature 31.78o clear sky

clear sky

Rain: 0 %

Min Temprature31.78o
Max Temprature31.78o
Humidity12
Wind Speed3.76 m/h
Sun Rise05:58:02
Sun Set19:15:45
Current Time: 13-Aug-2020 20:04:03
Lat/Lon: 30.2, 67.01




Quetta's Geo Location



Quetta's Weather Forecast

Time Overall Temp Min Temp Max Temp Humidity Wind Speed Rain
13-Aug-2020 (Thu)
23:00:00 clear sky 29.790 27.700 29.790 14 0.32 m/h 0 %
14-Aug-2020 (Fri)
02:00:00 clear sky 26.970 25.650 26.970 20 1.19 m/h 0 %
05:00:00 clear sky 24.190 23.670 24.190 56 1.34 m/h 0 %
08:00:00 scattered clouds 27.640 27.610 27.640 37 1.03 m/h 0 %
11:00:00 few clouds 33.010 33.010 33.010 11 1.88 m/h 0 %
14:00:00 few clouds 35.340 35.340 35.340 10 1.88 m/h 0 %
17:00:00 clear sky 35.320 35.320 35.320 10 1.5 m/h 0 %
20:00:00 clear sky 30.250 30.250 30.250 24 2.12 m/h 0 %
23:00:00 clear sky 27.010 27.010 27.010 51 3.04 m/h 0 %
15-Aug-2020 (Sat)
02:00:00 clear sky 25.100 25.100 25.100 59 2.28 m/h 0 %
05:00:00 clear sky 23.390 23.390 23.390 65 1.38 m/h 0 %
08:00:00 clear sky 26.760 26.760 26.760 43 0.94 m/h 0 %
11:00:00 clear sky 32.600 32.600 32.600 14 2.15 m/h 0 %
14:00:00 clear sky 35.240 35.240 35.240 11 2.35 m/h 0 %
17:00:00 clear sky 36.130 36.130 36.130 10 2.69 m/h 0 %
20:00:00 clear sky 31.720 31.720 31.720 16 2.57 m/h 0 %
23:00:00 clear sky 27.670 27.670 27.670 47 1.99 m/h 0 %
16-Aug-2020 (Sun)
02:00:00 clear sky 25.970 25.970 25.970 52 1.92 m/h 0 %
05:00:00 clear sky 23.770 23.770 23.770 56 0.97 m/h 0 %
08:00:00 clear sky 27.590 27.590 27.590 37 1.56 m/h 0 %
11:00:00 clear sky 32.960 32.960 32.960 13 1.95 m/h 0 %
14:00:00 clear sky 35.690 35.690 35.690 10 2.08 m/h 0 %
17:00:00 clear sky 36.580 36.580 36.580 9 2.44 m/h 0 %
20:00:00 clear sky 31.290 31.290 31.290 18 1.62 m/h 0 %
23:00:00 clear sky 27.970 27.970 27.970 43 1.85 m/h 0 %
17-Aug-2020 (Mon)
02:00:00 clear sky 26.630 26.630 26.630 43 1.77 m/h 0 %
05:00:00 clear sky 24.440 24.440 24.440 50 1.32 m/h 0 %
08:00:00 clear sky 28.280 28.280 28.280 35 0.85 m/h 0 %
11:00:00 clear sky 33.500 33.500 33.500 16 1.99 m/h 0 %
14:00:00 clear sky 36.390 36.390 36.390 11 2.22 m/h 0 %
17:00:00 clear sky 36.370 36.370 36.370 11 2.67 m/h 0 %
20:00:00 few clouds 30.360 30.360 30.360 27 2.51 m/h 0 %
23:00:00 clear sky 27.580 27.580 27.580 49 2.64 m/h 0 %
18-Aug-2020 (Tue)
02:00:00 clear sky 25.550 25.550 25.550 56 2.43 m/h 0 %
05:00:00 clear sky 23.800 23.800 23.800 65 2.04 m/h 0 %
08:00:00 clear sky 26.810 26.810 26.810 45 1.07 m/h 0 %
11:00:00 clear sky 32.630 32.630 32.630 18 2.71 m/h 0 %
14:00:00 clear sky 35.810 35.810 35.810 10 3.08 m/h 0 %
17:00:00 clear sky 35.560 35.560 35.560 10 6.07 m/h 0 %
20:00:00 clear sky 30.860 30.860 30.860 19 3.49 m/h 0 %

Famous Cities (60)